TimeCST,TemperatureF,Dew PointF,Humidity,Sea Level PressureIn,VisibilityMPH,Wind Direction,Wind SpeedMPH,Gust SpeedMPH,PrecipitationIn,Events,Conditions,WindDirDegrees,DateUTC
12:15 AM,26.6,23.0,86,30.37,10.0,Calm,Calm,-,N/A,,Clear,0,2013-01-06 06:15:00
12:35 AM,26.6,23.0,86,30.37,10.0,Calm,Calm,-,N/A,,Clear,0,2013-01-06 06:35:00
12:55 AM,24.8,21.2,86,30.36,10.0,SSW,3.5,-,N/A,,Clear,210,2013-01-06 06:55:00
1:15 AM,23.0,21.2,93,30.37,10.0,South,3.5,-,N/A,,Clear,190,2013-01-06 07:15:00
1:35 AM,24.8,21.2,86,30.37,10.0,Calm,Calm,-,N/A,,Clear,0,2013-01-06 07:35:00
1:55 AM,26.6,21.2,80,30.37,10.0,Calm,Calm,-,N/A,,Clear,0,2013-01-06 07:55:00
2:15 AM,24.8,21.2,86,30.37,10.0,Calm,Calm,-,N/A,,Clear,0,2013-01-06 08:15:00
2:35 AM,26.6,23.0,86,30.37,10.0,Calm,Calm,-,N/A,,Clear,0,2013-01-06 08:35:00
2:55 AM,26.6,23.0,86,30.38,10.0,Calm,Calm,-,N/A,,Clear,0,2013-01-06 08:55:00
3:15 AM,24.8,23.0,93,30.38,10.0,Calm,Calm,-,N/A,,Clear,0,2013-01-06 09:15:00
3:35 AM,24.8,21.2,86,30.38,10.0,Calm,Calm,-,N/A,,Clear,0,2013-01-06 09:35:00
3:55 AM,23.0,21.2,93,30.38,10.0,Calm,Calm,-,N/A,,Clear,0,2013-01-06 09:55:00
4:15 AM,23.0,21.2,93,30.39,10.0,Calm,Calm,-,N/A,,Clear,0,2013-01-06 10:15:00
4:35 AM,23.0,21.2,93,30.38,10.0,Calm,Calm,-,N/A,,Clear,0,2013-01-06 10:35:00
4:55 AM,23.0,21.2,93,30.38,10.0,Calm,Calm,-,N/A,,Clear,0,2013-01-06 10:55:00
5:15 AM,21.2,19.4,93,30.37,10.0,Calm,Calm,-,N/A,,Clear,0,2013-01-06 11:15:00
5:35 AM,21.2,17.6,86,30.37,10.0,Calm,Calm,-,N/A,,Clear,0,2013-01-06 11:35:00
5:55 AM,19.4,17.6,93,30.37,10.0,Calm,Calm,-,N/A,,Clear,0,2013-01-06 11:55:00
6:15 AM,21.2,19.4,93,30.37,10.0,SW,3.5,-,N/A,,Clear,230,2013-01-06 12:15:00
6:35 AM,21.2,19.4,93,30.38,10.0,Calm,Calm,-,N/A,,Clear,0,2013-01-06 12:35:00
6:55 AM,19.4,15.8,86,30.38,10.0,Calm,Calm,-,N/A,,Clear,0,2013-01-06 12:55:00
7:15 AM,19.4,17.6,93,30.39,10.0,WSW,3.5,-,N/A,,Clear,240,2013-01-06 13:15:00
7:55 AM,19.4,17.6,93,30.40,10.0,WSW,3.5,-,N/A,,Clear,240,2013-01-06 13:55:00
8:15 AM,19.4,17.6,93,30.40,10.0,Calm,Calm,-,N/A,,Clear,0,2013-01-06 14:15:00
8:35 AM,21.2,19.4,93,30.41,10.0,Calm,Calm,-,N/A,,Clear,0,2013-01-06 14:35:00
8:55 AM,23.0,21.2,93,30.41,10.0,Calm,Calm,-,N/A,,Clear,0,2013-01-06 14:55:00
9:35 AM,28.4,23.0,80,30.41,10.0,Calm,Calm,-,N/A,,Clear,0,2013-01-06 15:35:00
9:55 AM,30.2,26.6,86,30.41,10.0,North,4.6,-,N/A,,Clear,10,2013-01-06 15:55:00
10:15 AM,32.0,28.4,87,30.42,10.0,Calm,Calm,-,N/A,,Clear,0,2013-01-06 16:15:00
10:35 AM,33.8,30.2,87,30.42,10.0,Calm,Calm,-,N/A,,Clear,0,2013-01-06 16:35:00
10:55 AM,35.6,30.2,81,30.42,10.0,Calm,Calm,-,N/A,,Clear,0,2013-01-06 16:55:00
11:15 AM,37.4,30.2,75,30.42,10.0,Calm,Calm,-,N/A,,Clear,0,2013-01-06 17:15:00
11:35 AM,39.2,28.4,65,30.40,10.0,Calm,Calm,-,N/A,,Clear,0,2013-01-06 17:35:00
11:55 AM,41.0,28.4,61,30.40,10.0,Calm,Calm,-,N/A,,Clear,0,2013-01-06 17:55:00
12:15 PM,44.6,28.4,53,30.38,10.0,Calm,Calm,-,N/A,,Clear,0,2013-01-06 18:15:00
12:35 PM,46.4,26.6,46,30.37,10.0,SW,5.8,-,N/A,,Clear,230,2013-01-06 18:35:00
12:55 PM,46.4,26.6,46,30.35,10.0,SW,4.6,-,N/A,,Clear,230,2013-01-06 18:55:00
1:15 PM,50.0,23.0,35,30.34,10.0,SSW,4.6,-,N/A,,Clear,210,2013-01-06 19:15:00
1:35 PM,50.0,24.8,37,30.32,10.0,WSW,5.8,-,N/A,,Clear,240,2013-01-06 19:35:00
1:55 PM,50.0,23.0,35,30.31,10.0,SW,8.1,-,N/A,,Clear,230,2013-01-06 19:55:00
2:15 PM,50.0,24.8,37,30.29,10.0,SSW,5.8,-,N/A,,Clear,210,2013-01-06 20:15:00
2:55 PM,51.8,23.0,33,30.28,10.0,SW,11.5,-,N/A,,Clear,230,2013-01-06 20:55:00
3:15 PM,51.8,21.2,30,30.28,10.0,SSW,6.9,-,N/A,,Clear,210,2013-01-06 21:15:00
3:35 PM,51.8,21.2,30,30.27,10.0,WSW,9.2,-,N/A,,Clear,240,2013-01-06 21:35:00
3:55 PM,53.6,21.2,28,30.27,10.0,SW,11.5,-,N/A,,Clear,220,2013-01-06 21:55:00
4:15 PM,51.8,21.2,30,30.26,10.0,SW,10.4,-,N/A,,Clear,230,2013-01-06 22:15:00
4:35 PM,51.8,21.2,30,30.26,10.0,SSW,10.4,-,N/A,,Clear,210,2013-01-06 22:35:00
4:55 PM,51.8,19.4,28,30.26,10.0,SSW,10.4,-,N/A,,Clear,200,2013-01-06 22:55:00
5:15 PM,50.0,21.2,32,30.26,10.0,South,8.1,-,N/A,,Clear,190,2013-01-06 23:15:00
5:35 PM,46.4,21.2,37,30.25,10.0,South,6.9,-,N/A,,Clear,190,2013-01-06 23:35:00
5:55 PM,42.8,21.2,42,30.25,10.0,South,8.1,-,N/A,,Clear,190,2013-01-06 23:55:00
6:15 PM,41.0,21.2,45,30.26,10.0,South,8.1,-,N/A,,Clear,190,2013-01-07 00:15:00
6:35 PM,41.0,21.2,45,30.26,10.0,South,6.9,-,N/A,,Clear,180,2013-01-07 00:35:00
6:55 PM,41.0,21.2,45,30.25,10.0,South,8.1,-,N/A,,Clear,190,2013-01-07 00:55:00
7:15 PM,41.0,21.2,45,30.26,10.0,South,9.2,-,N/A,,Clear,180,2013-01-07 01:15:00
7:35 PM,39.2,21.2,49,30.25,10.0,South,9.2,-,N/A,,Clear,170,2013-01-07 01:35:00
7:55 PM,37.4,21.2,52,30.25,10.0,Calm,Calm,-,N/A,,Clear,0,2013-01-07 01:55:00
8:15 PM,33.8,21.2,60,30.26,10.0,Calm,Calm,-,N/A,,Clear,0,2013-01-07 02:15:00
8:55 PM,33.8,23.0,65,30.25,10.0,Calm,Calm,-,N/A,,Clear,0,2013-01-07 02:55:00
9:35 PM,33.8,21.2,60,30.25,10.0,SW,6.9,-,N/A,,Clear,230,2013-01-07 03:35:00
9:55 PM,35.6,23.0,60,30.25,10.0,SW,6.9,-,N/A,,Clear,230,2013-01-07 03:55:00
10:15 PM,35.6,21.2,56,30.24,10.0,West,3.5,-,N/A,,Clear,260,2013-01-07 04:15:00
10:35 PM,33.8,21.2,60,30.24,10.0,Calm,Calm,-,N/A,,Clear,0,2013-01-07 04:35:00
10:55 PM,32.0,21.2,64,30.24,10.0,Calm,Calm,-,N/A,,Clear,0,2013-01-07 04:55:00
11:35 PM,33.8,23.0,65,30.23,10.0,Calm,Calm,-,N/A,,Clear,0,2013-01-07 05:35:00
11:55 PM,33.8,23.0,65,30.23,10.0,Calm,Calm,-,N/A,,Clear,0,2013-01-07 05:55:00